Nearby METAR Reports

 

KMTN - Baltimore/Martin, Maryland, USA
Distance from station: SSE 8mi, 13km
Updated: Sat, 01-Nov-2014 7:50am EDT
Light rain, Overcast
Light rain, Overcast
 Wind from NNW
Wind: NNW 14 mph , 22 km/h
Temperature: 50°F , 10°C
Wind Chill: 45°F , 7°C
Dew Point: 45°F , 7°C
Humidity: 82%
Barometer: 29.80 inHg , 1009.1 hPa
Summary: Light rain
Clouds: Overcast
Visibility: 7 miles , 11 km
Cloud details: Mostly cloudy 1100 ft
Mostly cloudy 1700 ft
Overcast 2500 ft
2014/11/01 11:50 KMTN 011150Z 34012KT 7SM -RA BKN011 BKN017 OVC025 10/07 A2980
KDMH - Baltimore/Dwntwn, Maryland, USA
Distance from station: SW 12mi, 19km
Updated: Sat, 01-Nov-2014 7:54am EDT

 
Temperature: 50°F , 10°C
Dew Point: 43°F , 6°C
Humidity: 76%
Barometer: 29.79 inHg , 1008.8 hPa
2014/11/01 11:54 KDMH 011154Z AUTO 10/06 A2979 RMK AO1 SLP089 P0001 60001 70001 T01000061 10100 20094 52010
 
KBWI - Balto/Wash Intl, Maryland, USA
Distance from station: SSW 20mi, 33km
Updated: Sat, 01-Nov-2014 7:54am EDT
Light rain, Overcast
Light rain, Overcast
 Wind from N
Wind: N 12 mph , 19 km/h, Gust: 18 mph , 30 km/h
Temperature: 48°F , 9°C
Wind Chill: 43°F , 6°C
Dew Point: 43°F , 6°C
Humidity: 82%
Barometer: 29.78 inHg , 1008.5 hPa
Summary: Light rain
Clouds: Overcast
Visibility: 8 miles , 13 km
Cloud details: Overcast 2000 ft
2014/11/01 11:54 KBWI 011154Z 01010G16KT 8SM -RA OVC020 09/06 A2978 RMK AO2 RAB47 SLP086 P0000 60008 70008 T00940056 10094 20078 53009 $
KDMW - Carroll Cnty, Maryland, USA
Distance from station: WNW 30mi, 48km
Updated: Sat, 01-Nov-2014 7:55am EDT
Overcast
Overcast
 Wind from N
Wind: N 10 mph , 17 km/h
Temperature: 45°F , 7°C
Wind Chill: 40°F , 4°C
Dew Point: 41°F , 5°C
Humidity: 87%
Barometer: 29.82 inHg , 1009.8 hPa
Clouds: Overcast
Visibility: 10 miles , 16 km
Cloud details: Overcast 1700 ft
2014/11/01 11:55 KDMW 011155Z AUTO 01009KT 10SM OVC017 07/05 A2982 RMK AO2 LTG DSNT S
 
KNAK - Annapolis/Naval, Maryland, USA
Distance from station: S 30mi, 48km
Updated: Sat, 01-Nov-2014 7:54am EDT
Light rain, Overcast
Light rain, Overcast
 Wind from N
Wind: N 13 mph , 20 km/h, Gust: 23 mph , 37 km/h
Temperature: 50°F , 10°C
Wind Chill: 45°F , 7°C
Dew Point: 45°F , 7°C
Humidity: 82%
Barometer: 29.77 inHg , 1008.1 hPa
Summary: Light rain
Clouds: Overcast
Visibility: 5 miles , 8 km
Cloud details: Overcast 2300 ft
2014/11/01 11:54 KNAK 011154Z AUTO 36011G20KT 5SM -RA OVC023 10/07 A2977 RMK AO2 RAB37 SLP083 P0001 60001 70001 T01000072 10106 20100 51011
KW29 - Stevensville, Maryland, USA
Distance from station: SSE 31mi, 50km
Updated: Sat, 01-Nov-2014 7:58am EDT
Rain
Rain
 Wind from N
Wind: N 13 mph , 20 km/h, Gust: 18 mph , 30 km/h
Temperature: 50°F , 10°C
Wind Chill: 45°F , 7°C
Dew Point: 45°F , 7°C
Humidity: 82%
Barometer: 29.77 inHg , 1008.1 hPa
Summary: Rain
Visibility: 10 miles , 16 km
2014/11/01 11:58 KW29 011158Z AUTO 01011G16KT 10SM RA 10/07 A2977 RMK AO1
 
KCGS - College Park, Maryland, USA
Distance from station: SW 38mi, 61km
Updated: Sat, 01-Nov-2014 7:55am EDT
Overcast
Overcast
 Wind from N
Wind: N 7 mph , 11 km/h
Temperature: 50°F , 10°C
Wind Chill: 47°F , 8°C
Dew Point: 41°F , 5°C
Humidity: 71%
Barometer: 29.79 inHg , 1008.8 hPa
Clouds: Overcast
Visibility: 10 miles , 16 km
Cloud details: Overcast 2200 ft
2014/11/01 11:55 KCGS 011155Z AUTO 35006KT 10SM OVC022 10/05 A2979 RMK AO1
KGAI - Gaithersburg, Maryland, USA
Distance from station: WSW 40mi, 65km
Updated: Sat, 01-Nov-2014 7:55am EDT
Mostly cloudy
Mostly cloudy
 Wind from N
Wind: N 5 mph , 7 km/h
Temperature: 45°F , 7°C
Wind Chill: 42°F , 6°C
Dew Point: 39°F , 4°C
Humidity: 81%
Barometer: 29.83 inHg , 1010.2 hPa
Clouds: Mostly cloudy
Visibility: 10 miles , 16 km
Cloud details: Partly cloudy 1700 ft
Mostly cloudy 7000 ft
2014/11/01 11:55 KGAI 011155Z 36004KT 10SM SCT017 BKN070 07/04 A2983 RMK AO1 10070 20060 52007
 
KTHV - York, Pennsylvania, USA
Distance from station: NNW 40mi, 65km
Updated: Sat, 01-Nov-2014 7:53am EDT
Overcast
Overcast
 Wind from N
Wind: N 9 mph , 15 km/h
Temperature: 46°F , 8°C
Wind Chill: 41°F , 5°C
Dew Point: 41°F , 5°C
Humidity: 82%
Barometer: 29.84 inHg , 1010.5 hPa
Clouds: Overcast
Visibility: 10 miles , 16 km
Cloud details: Overcast 2200 ft
2014/11/01 11:53 KTHV 011153Z AUTO 35008KT 10SM OVC022 08/05 A2984 RMK AO2 SLP109 60001 70001 T00780050 10083 20072 53012
KFDK - Frederick, Maryland, USA
Distance from station: W 47mi, 75km
Updated: Sat, 01-Nov-2014 7:50am EDT
Overcast
Overcast
 Wind from NNE
Wind: NNE 12 mph , 19 km/h
Temperature: 52°F , 11°C
Dew Point: 41°F , 5°C
Humidity: 67%
Barometer: 29.85 inHg , 1010.8 hPa
Clouds: Overcast
Visibility: 10 miles , 16 km
Cloud details: Overcast 2100 ft
2014/11/01 11:50 KFDK 011150Z 02010KT 10SM OVC021 11/05 A2985
 
KESN - Easton/Newnam, Maryland, USA
Distance from station: SSE 48mi, 78km
Updated: Sat, 01-Nov-2014 6:50am EDT
NOT Current
Rain, Overcast
Rain, Overcast
 Wind from NNE
Wind: NNE 14 mph , 22 km/h, Gust: 18 mph , 30 km/h
Temperature: 50°F , 10°C
Wind Chill: 45°F , 7°C
Dew Point: 48°F , 9°C
Humidity: 94%
Barometer: 29.76 inHg , 1007.8 hPa
Summary: Rain
Clouds: Overcast
Visibility: 7 miles , 11 km
Cloud details: Mostly cloudy 1500 ft
Mostly cloudy 2400 ft
Overcast 6000 ft
2014/11/01 10:50 KESN 011050Z 02012G16KT 7SM RA BKN015 BKN024 OVC060 10/09 A2976
KDCA - Washington/Natl, Washington D.c., USA
Distance from station: SW 49mi, 79km
Updated: Sat, 01-Nov-2014 7:52am EDT
Overcast
Overcast
 Wind from N
Wind: N 14 mph , 22 km/h
Temperature: 52°F , 11°C
Dew Point: 39°F , 4°C
Humidity: 62%
Barometer: 29.79 inHg , 1008.8 hPa
Clouds: Overcast
Visibility: 10 miles , 16 km
Cloud details: Overcast 2100 ft
2014/11/01 11:52 KDCA 011152Z 36012KT 10SM OVC021 11/04 A2979 RMK AO2 SLP089 T01060044 10111 20100 51008
 
KLNS - Lancaster, Pennsylvania, USA
Distance from station: N 49mi, 79km
Updated: Sat, 01-Nov-2014 7:53am EDT
Overcast
Overcast
 Wind from NE
Wind: NE 13 mph , 20 km/h
Temperature: 46°F , 8°C
Wind Chill: 40°F , 4°C
Dew Point: 39°F , 4°C
Humidity: 76%
Barometer: 29.84 inHg , 1010.5 hPa
Clouds: Overcast
Visibility: 10 miles , 16 km
Cloud details: Mostly cloudy 2500 ft
Mostly cloudy 3300 ft
Overcast 7000 ft
2014/11/01 11:53 KLNS 011153Z 05011KT 10SM BKN025 BKN033 OVC070 08/04 A2984 RMK AO2 SLP106 60000 7//// T00780039 10089 20072 52016
KILG - Wilmington, Delaware, USA
Distance from station: ENE 50mi, 81km
Updated: Sat, 01-Nov-2014 7:51am EDT
Light rain, Overcast
Light rain, Overcast
 Wind from NNE
Wind: NNE 18 mph , 30 km/h, Gust: 30 mph , 48 km/h
Temperature: 45°F , 7°C
Wind Chill: 37°F , 3°C
Dew Point: 43°F , 6°C
Humidity: 93%
Barometer: 29.80 inHg , 1009.1 hPa
Summary: Light rain
Clouds: Overcast
Visibility: 10 miles , 16 km
Cloud details: Few Clouds 1700 ft
Partly cloudy 2500 ft
Overcast 5500 ft
2014/11/01 11:51 KILG 011151Z 02016G26KT 10SM -RA FEW017 SCT025 OVC055 07/06 A2980 RMK AO2 PK WND 02026/1145 SLP089 P0006 60018 70018 T00720056 10106 20072 51012